Time;durP1;ratioP1;P1;durP2;ratioP2;P2;SDS_P1;SDS_P2;PMS_P1;PMS_P2;Temp;Humidity;BMP_temperature;BMP_pressure;BME280_temperature;BME280_humidity;BME280_pressure;Samples;Min_cycle;Max_cycle;Signal;HPM_P1;HPM_P2
2023/03/11 00:01:41;;;;;;;;;;;;;;;;;;4931989;29;19930;-92
2023/03/11 00:04:07;;;;;;;;;;;;;;;;;;4938733;29;19962;-91
2023/03/11 00:06:33;;;;;;;;;;;;;;;;;;4948315;29;19930;-92
2023/03/11 00:08:59;;;;;;;;;;;;;;;;;;4931831;29;19922;-92
2023/03/11 00:11:30;;;;;;;;;;;;;;;;;;4960149;29;19926;-92
2023/03/11 00:14:23;;;;;;;;;;;;;;;;;;4960174;29;19910;-93
2023/03/11 00:16:58;;;;;;;;;;;;;;;;;;4932733;29;19926;-93
2023/03/11 00:19:24;;;;;;;;;;;;;;;;;;4945821;29;20021;-92
2023/03/11 00:21:50;;;;;;;;;;;;;;;;;;4929717;29;19927;-92
2023/03/11 00:24:16;;;;;;;;;;;;;;;;;;4929662;29;19923;-92
2023/03/11 00:26:42;;;;;;;;;;;;;;;;;;4934079;29;19954;-92
2023/03/11 00:32:17;;;;;;;;;;;;;;;;;;4957989;29;19939;-92
2023/03/11 00:35:24;;;;;;;;;;;;;;;;;;4945636;29;19923;-92
2023/03/11 00:37:50;;;;;;;;;;;;;;;;;;4929075;29;19923;-91
2023/03/11 00:40:16;;;;;;;;;;;;;;;;;;4944595;29;19934;-91
2023/03/11 00:42:42;;;;;;;;;;;;;;;;;;4944893;29;19930;-92
2023/03/11 00:45:08;;;;;;;;;;;;;;;;;;4930026;29;19976;-92
2023/03/11 00:47:34;;;;;;;;;;;;;;;;;;4930118;29;19923;-92
2023/03/11 00:49:59;;;;;;;;;;;;;;;;;;4929768;29;19962;-92
2023/03/11 00:52:25;;;;;;;;;;;;;;;;;;4929815;29;19970;-92
2023/03/11 00:54:51;;;;;;;;;;;;;;;;;;4929704;29;19958;-92
2023/03/11 00:57:17;;;;;;;;;;;;;;;;;;4945132;29;20021;-92
2023/03/11 00:59:43;;;;;;;;;;;;;;;;;;4927737;29;19982;-92
2023/03/11 01:02:09;;;;;;;;;;;;;;;;;;4929424;29;19923;-92
2023/03/11 01:04:35;;;;;;;;;;;;;;;;;;4933656;29;19926;-92
2023/03/11 01:10:10;;;;;;;;;;;;;;;;;;4965594;29;19923;-92
2023/03/11 01:13:07;;;;;;;;;;;;;;;;;;4952335;29;19923;-92
2023/03/11 01:15:33;;;;;;;;;;;;;;;;;;4928710;29;19923;-92
2023/03/11 01:17:59;;;;;;;;;;;;;;;;;;4940831;29;19906;-92
2023/03/11 01:21:03;;;;;;;;;;;;;;;;;;4956896;28;19951;-92
2023/03/11 01:23:31;;;;;;;;;;;;;;;;;;4929026;29;19923;-91
2023/03/11 01:25:57;;;;;;;;;;;;;;;;;;4928499;29;19923;-91
2023/03/11 01:28:25;;;;;;;;;;;;;;;;;;4929954;29;19923;-91
2023/03/11 01:30:55;;;;;;;;;;;;;;;;;;4952072;29;19927;-91
2023/03/11 01:33:21;;;;;;;;;;;;;;;;;;4934420;29;19946;-91
2023/03/11 01:35:48;;;;;;;;;;;;;;;;;;4940654;29;19923;-92
2023/03/11 01:38:21;;;;;;;;;;;;;;;;;;4956958;29;19930;-92
2023/03/11 01:40:46;;;;;;;;;;;;;;;;;;4926775;29;19927;-92
2023/03/11 01:43:12;;;;;;;;;;;;;;;;;;4926557;29;19946;-92
2023/03/11 01:45:38;;;;;;;;;;;;;;;;;;4927547;29;19923;-92
2023/03/11 01:48:04;;;;;;;;;;;;;;;;;;4927518;29;19946;-91
2023/03/11 01:50:30;;;;;;;;;;;;;;;;;;4927306;29;19930;-91
2023/03/11 01:52:56;;;;;;;;;;;;;;;;;;4927154;29;19922;-92
2023/03/11 01:55:22;;;;;;;;;;;;;;;;;;4926495;29;19930;-92
2023/03/11 01:57:48;;;;;;;;;;;;;;;;;;4927388;29;19923;-92
2023/03/11 02:00:14;;;;;;;;;;;;;;;;;;4942600;29;19930;-91
2023/03/11 02:02:40;;;;;;;;;;;;;;;;;;4930072;29;19929;-92
2023/03/11 02:05:06;;;;;;;;;;;;;;;;;;4930688;29;19974;-92
2023/03/11 02:07:32;;;;;;;;;;;;;;;;;;4930542;29;20049;-92
2023/03/11 02:09:58;;;;;;;;;;;;;;;;;;4931032;29;19923;-92
2023/03/11 02:12:24;;;;;;;;;;;;;;;;;;4932103;29;20448;-92
2023/03/11 02:14:50;;;;;;;;;;;;;;;;;;4930560;29;19977;-90
2023/03/11 02:17:16;;;;;;;;;;;;;;;;;;4946264;29;19934;-91
2023/03/11 02:19:42;;;;;;;;;;;;;;;;;;4929772;29;19942;-90
2023/03/11 02:22:07;;;;;;;;;;;;;;;;;;4946279;29;20017;-91
2023/03/11 02:24:33;;;;;;;;;;;;;;;;;;4930310;29;19930;-91
2023/03/11 02:27:06;;;;;;;;;;;;;;;;;;4931603;29;19930;-91
2023/03/11 02:29:52;;;;;;;;;;;;;;;;;;4960495;29;19939;-91
2023/03/11 02:32:19;;;;;;;;;;;;;;;;;;4954569;29;19926;-92
2023/03/11 02:34:45;;;;;;;;;;;;;;;;;;4929947;29;19933;-91
2023/03/11 02:37:10;;;;;;;;;;;;;;;;;;4929790;29;19923;-91
2023/03/11 02:39:36;;;;;;;;;;;;;;;;;;4929225;29;20018;-91
2023/03/11 02:42:02;;;;;;;;;;;;;;;;;;4929297;29;19989;-91
2023/03/11 02:44:32;;;;;;;;;;;;;;;;;;4938895;29;19923;-91
2023/03/11 02:47:02;;;;;;;;;;;;;;;;;;4952871;29;19930;-91
2023/03/11 02:49:28;;;;;;;;;;;;;;;;;;4945520;29;19926;-91
2023/03/11 02:51:54;;;;;;;;;;;;;;;;;;4928927;29;19973;-91
2023/03/11 02:54:20;;;;;;;;;;;;;;;;;;4929474;29;19961;-91
2023/03/11 02:57:01;;;;;;;;;;;;;;;;;;4930086;29;19927;-91
2023/03/11 02:59:27;;;;;;;;;;;;;;;;;;4929834;29;20371;-91
2023/03/11 03:01:53;;;;;;;;;;;;;;;;;;4928781;29;20277;-91
2023/03/11 03:04:19;;;;;;;;;;;;;;;;;;4928671;29;19930;-90
2023/03/11 03:06:45;;;;;;;;;;;;;;;;;;4928929;29;19927;-91
2023/03/11 03:09:11;;;;;;;;;;;;;;;;;;4928387;29;19937;-90
2023/03/11 03:11:37;;;;;;;;;;;;;;;;;;4929289;29;19923;-91
2023/03/11 03:14:03;;;;;;;;;;;;;;;;;;4932189;29;19923;-90
2023/03/11 03:16:32;;;;;;;;;;;;;;;;;;4957976;29;19930;-90
2023/03/11 03:18:59;;;;;;;;;;;;;;;;;;4943406;29;19934;-90
2023/03/11 03:21:29;;;;;;;;;;;;;;;;;;4958775;29;19930;-89
2023/03/11 03:23:55;;;;;;;;;;;;;;;;;;4935450;29;19956;-88
2023/03/11 03:26:24;;;;;;;;;;;;;;;;;;4956904;29;19923;-89
2023/03/11 03:28:58;;;;;;;;;;;;;;;;;;4943697;29;19930;-91
2023/03/11 03:34:34;;;;;;;;;;;;;;;;;;4965709;29;20000;-90
2023/03/11 03:40:08;;;;;;;;;;;;;;;;;;4948162;29;19930;-90
2023/03/11 03:42:34;;;;;;;;;;;;;;;;;;4927221;29;19930;-90
2023/03/11 03:45:00;;;;;;;;;;;;;;;;;;4927803;29;19923;-91
2023/03/11 03:47:26;;;;;;;;;;;;;;;;;;4927622;29;19927;-90
2023/03/11 03:49:52;;;;;;;;;;;;;;;;;;4943370;29;20376;-90
2023/03/11 03:52:18;;;;;;;;;;;;;;;;;;4946725;29;19930;-90
2023/03/11 03:54:44;;;;;;;;;;;;;;;;;;4935162;29;19927;-90
2023/03/11 03:57:09;;;;;;;;;;;;;;;;;;4927979;29;19923;-91
2023/03/11 03:59:36;;;;;;;;;;;;;;;;;;4927065;29;20348;-91
2023/03/11 04:02:11;;;;;;;;;;;;;;;;;;4933009;29;19958;-90
2023/03/11 04:04:37;;;;;;;;;;;;;;;;;;4930636;29;19923;-89
2023/03/11 04:07:03;;;;;;;;;;;;;;;;;;4926921;29;19923;-90
2023/03/11 04:09:29;;;;;;;;;;;;;;;;;;4926997;29;19930;-90
2023/03/11 04:11:55;;;;;;;;;;;;;;;;;;4926808;29;20293;-90
2023/03/11 04:14:21;;;;;;;;;;;;;;;;;;4927024;29;19923;-90
2023/03/11 04:16:47;;;;;;;;;;;;;;;;;;4927784;29;19937;-90
2023/03/11 04:19:16;;;;;;;;;;;;;;;;;;4937353;29;19958;-90
2023/03/11 04:21:43;;;;;;;;;;;;;;;;;;4940981;29;19943;-91
2023/03/11 04:24:11;;;;;;;;;;;;;;;;;;4940958;29;19978;-90
2023/03/11 04:26:40;;;;;;;;;;;;;;;;;;4931142;29;19933;-90
2023/03/11 04:29:06;;;;;;;;;;;;;;;;;;4939608;29;19947;-90
2023/03/11 04:31:35;;;;;;;;;;;;;;;;;;4946373;29;19950;-90
2023/03/11 04:34:01;;;;;;;;;;;;;;;;;;4927200;29;19923;-90
2023/03/11 04:36:27;;;;;;;;;;;;;;;;;;4926601;29;19923;-90
2023/03/11 04:38:53;;;;;;;;;;;;;;;;;;4927147;29;19934;-89
2023/03/11 04:41:19;;;;;;;;;;;;;;;;;;4928123;29;19923;-90
2023/03/11 04:43:46;;;;;;;;;;;;;;;;;;4940747;29;19927;-91
2023/03/11 04:46:19;;;;;;;;;;;;;;;;;;4957854;29;19927;-90
2023/03/11 04:48:45;;;;;;;;;;;;;;;;;;4931871;29;19985;-90
2023/03/11 04:51:11;;;;;;;;;;;;;;;;;;4927486;29;19923;-91
2023/03/11 04:53:37;;;;;;;;;;;;;;;;;;4927839;29;19929;-90
2023/03/11 04:56:03;;;;;;;;;;;;;;;;;;4943926;29;20017;-91
2023/03/11 04:58:29;;;;;;;;;;;;;;;;;;4928634;29;19986;-91
2023/03/11 05:00:55;;;;;;;;;;;;;;;;;;4928427;29;19937;-91
2023/03/11 05:03:21;;;;;;;;;;;;;;;;;;4928396;29;19954;-90
2023/03/11 05:05:47;;;;;;;;;;;;;;;;;;4934858;29;19923;-91
2023/03/11 05:08:14;;;;;;;;;;;;;;;;;;4956820;29;19923;-91
2023/03/11 05:15:52;;;;;;;;;;;;;;;;;;5032053;23;19930;-90
2023/03/11 05:18:30;;;;;;;;;;;;;;;;;;5015284;28;19928;-91
2023/03/11 05:21:15;;;;;;;;;;;;;;;;;;5015909;28;19944;-91
2023/03/11 05:23:41;;;;;;;;;;;;;;;;;;4998107;28;20434;-92
2023/03/11 05:26:11;;;;;;;;;;;;;;;;;;5015400;28;19928;-92
2023/03/11 05:28:37;;;;;;;;;;;;;;;;;;4985568;28;19977;-91
2023/03/11 05:31:03;;;;;;;;;;;;;;;;;;4984571;28;20334;-91
2023/03/11 05:33:34;;;;;;;;;;;;;;;;;;5005843;28;19929;-91
2023/03/11 05:36:03;;;;;;;;;;;;;;;;;;5000880;28;19910;-91
2023/03/11 06:20:20;;;;;;;;;;;;;;;;;;4964072;29;19926;-90
2023/03/11 06:22:46;;;;;;;;;;;;;;;;;;4949548;29;19922;-91
2023/03/11 06:25:12;;;;;;;;;;;;;;;;;;4949200;29;19923;-90
2023/03/11 06:27:38;;;;;;;;;;;;;;;;;;4949461;29;20274;-91
2023/03/11 06:30:04;;;;;;;;;;;;;;;;;;4949607;29;19923;-91
2023/03/11 06:32:46;;;;;;;;;;;;;;;;;;4949930;29;19930;-91
2023/03/11 06:35:12;;;;;;;;;;;;;;;;;;4950113;29;19933;-91
2023/03/11 06:37:38;;;;;;;;;;;;;;;;;;4967219;29;19922;-90
2023/03/11 06:40:05;;;;;;;;;;;;;;;;;;4958608;29;19926;-91
2023/03/11 06:42:31;;;;;;;;;;;;;;;;;;4950450;29;19930;-90
2023/03/11 06:44:59;;;;;;;;;;;;;;;;;;4959382;29;19926;-90
2023/03/11 06:47:45;;;;;;;;;;;;;;;;;;4975893;28;19926;-91
2023/03/11 06:50:12;;;;;;;;;;;;;;;;;;4962853;29;19911;-91
2023/03/11 06:52:42;;;;;;;;;;;;;;;;;;4964405;28;19933;-91
2023/03/11 06:55:13;;;;;;;;;;;;;;;;;;4963870;29;19923;-91
2023/03/11 06:57:39;;;;;;;;;;;;;;;;;;4963767;29;20325;-90
2023/03/11 07:00:06;;;;;;;;;;;;;;;;;;4949868;29;19933;-90
2023/03/11 07:02:32;;;;;;;;;;;;;;;;;;4955484;29;19913;-91
2023/03/11 07:05:01;;;;;;;;;;;;;;;;;;4975643;28;19950;-90
2023/03/11 07:07:27;;;;;;;;;;;;;;;;;;4949494;29;19922;-89
2023/03/11 07:09:53;;;;;;;;;;;;;;;;;;4948297;29;20315;-89
2023/03/11 07:12:21;;;;;;;;;;;;;;;;;;4957313;29;20071;-90
2023/03/11 07:14:50;;;;;;;;;;;;;;;;;;4974091;29;19962;-90
2023/03/11 07:17:17;;;;;;;;;;;;;;;;;;4961610;29;19950;-89
2023/03/11 07:19:47;;;;;;;;;;;;;;;;;;4959681;29;19927;-90
2023/03/11 07:22:13;;;;;;;;;;;;;;;;;;4966320;29;19929;-90
2023/03/11 07:24:46;;;;;;;;;;;;;;;;;;4969664;29;19906;-91
2023/03/11 07:27:12;;;;;;;;;;;;;;;;;;4945780;29;19957;-89
2023/03/11 07:29:41;;;;;;;;;;;;;;;;;;4966195;28;19961;-90
2023/03/11 07:32:10;;;;;;;;;;;;;;;;;;4949169;29;19930;-90
2023/03/11 07:34:36;;;;;;;;;;;;;;;;;;4949358;29;19923;-91
2023/03/11 07:37:02;;;;;;;;;;;;;;;;;;4949351;29;19929;-91
2023/03/11 07:39:28;;;;;;;;;;;;;;;;;;4944744;29;19990;-90
2023/03/11 07:41:54;;;;;;;;;;;;;;;;;;4937349;29;19933;-91
2023/03/11 07:44:20;;;;;;;;;;;;;;;;;;4959727;29;19966;-90
2023/03/11 07:46:46;;;;;;;;;;;;;;;;;;4948894;29;19923;-90
2023/03/11 07:49:12;;;;;;;;;;;;;;;;;;4948287;29;20024;-90
2023/03/11 07:51:39;;;;;;;;;;;;;;;;;;4948371;29;19922;-89
2023/03/11 07:54:05;;;;;;;;;;;;;;;;;;4957995;29;19923;-91
2023/03/11 07:56:31;;;;;;;;;;;;;;;;;;4937133;29;19976;-90
2023/03/11 07:58:57;;;;;;;;;;;;;;;;;;4953725;28;19926;-91
2023/03/11 08:04:27;;;;;;;;;;;;;;;;;;5101247;23;19933;-90
2023/03/11 08:07:12;;;;;;;;;;;;;;;;;;4988019;28;19957;-90
2023/03/11 08:09:42;;;;;;;;;;;;;;;;;;4962081;29;19933;-92
2023/03/11 08:12:08;;;;;;;;;;;;;;;;;;4964874;29;19907;-91
2023/03/11 08:14:43;;;;;;;;;;;;;;;;;;4960620;29;19929;-92
2023/03/11 08:17:10;;;;;;;;;;;;;;;;;;4981162;28;19962;-93
2023/03/11 08:19:36;;;;;;;;;;;;;;;;;;4968486;28;19926;-92
2023/03/11 08:24:50;;;;;;;;;;;;;;;;;;4979097;29;19922;-93
2023/03/11 08:27:25;;;;;;;;;;;;;;;;;;4978463;28;19928;-90
2023/03/11 08:29:52;;;;;;;;;;;;;;;;;;4961185;29;20392;-93
2023/03/11 08:32:18;;;;;;;;;;;;;;;;;;4963074;28;19926;-92
2023/03/11 08:50:34;;;;;;;;;;;;;;;;;;4964841;29;19937;-92
2023/03/11 08:53:02;;;;;;;;;;;;;;;;;;4938087;29;19993;-92
2023/03/11 08:55:28;;;;;;;;;;;;;;;;;;4943939;29;19922;-91
2023/03/11 08:57:54;;;;;;;;;;;;;;;;;;4952123;29;20021;-91
2023/03/11 09:00:19;;;;;;;;;;;;;;;;;;4968711;29;19910;-92
2023/03/11 09:02:46;;;;;;;;;;;;;;;;;;4937992;29;19953;-92
2023/03/11 09:05:24;;;;;;;;;;;;;;;;;;4971228;29;19922;-91
2023/03/11 09:08:01;;;;;;;;;;;;;;;;;;4941928;29;20625;-91
2023/03/11 09:10:27;;;;;;;;;;;;;;;;;;4945681;28;19914;-92
2023/03/11 09:13:05;;;;;;;;;;;;;;;;;;4977534;29;19934;-92
2023/03/11 09:15:39;;;;;;;;;;;;;;;;;;4967439;28;19971;-91
2023/03/11 09:18:23;;;;;;;;;;;;;;;;;;4957532;29;19914;-91
2023/03/11 09:20:57;;;;;;;;;;;;;;;;;;4957844;29;19926;-93
2023/03/11 09:23:45;;;;;;;;;;;;;;;;;;4975474;28;19922;-92
2023/03/11 09:26:12;;;;;;;;;;;;;;;;;;4953158;29;19923;-91
2023/03/11 09:34:05;;;;;;;;;;;;;;;;;;4991623;28;19926;-92
2023/03/11 09:36:40;;;;;;;;;;;;;;;;;;4997977;28;19926;-92
2023/03/11 09:39:06;;;;;;;;;;;;;;;;;;4971331;28;20295;-92
2023/03/11 09:41:32;;;;;;;;;;;;;;;;;;4967354;28;19922;-92
2023/03/11 09:47:06;;;;;;;;;;;;;;;;;;5421728;23;19957;-92
2023/03/11 09:53:00;;;;;;;;;;;;;;;;;;5018207;28;19933;-92
2023/03/11 09:55:36;;;;;;;;;;;;;;;;;;5018753;28;19909;-92
2023/03/11 09:58:34;;;;;;;;;;;;;;;;;;5018685;28;19953;-93
2023/03/11 11:37:30;;;;;;;;;;;;;;;;;;4964746;29;19949;-91
2023/03/11 11:39:56;;;;;;;;;;;;;;;;;;4948864;29;19926;-91
2023/03/11 11:42:22;;;;;;;;;;;;;;;;;;4931080;29;20030;-91
2023/03/11 11:44:49;;;;;;;;;;;;;;;;;;4932289;29;19923;-90
2023/03/11 11:47:15;;;;;;;;;;;;;;;;;;4931055;29;20174;-90
2023/03/11 11:49:41;;;;;;;;;;;;;;;;;;4930175;29;19972;-90
2023/03/11 11:52:07;;;;;;;;;;;;;;;;;;4930285;29;19968;-90
2023/03/11 11:54:33;;;;;;;;;;;;;;;;;;4959010;29;19927;-89
2023/03/11 11:56:59;;;;;;;;;;;;;;;;;;4965342;29;20299;-89
2023/03/11 11:59:25;;;;;;;;;;;;;;;;;;4948564;29;19931;-89
2023/03/11 12:02:03;;;;;;;;;;;;;;;;;;4955016;29;19961;-90
2023/03/11 12:04:42;;;;;;;;;;;;;;;;;;4950233;29;19923;-90
2023/03/11 12:07:08;;;;;;;;;;;;;;;;;;4949338;29;20372;-90
2023/03/11 12:09:40;;;;;;;;;;;;;;;;;;4954218;29;19945;-88
2023/03/11 12:12:09;;;;;;;;;;;;;;;;;;4959849;29;19923;-90
2023/03/11 12:14:49;;;;;;;;;;;;;;;;;;4971124;29;19930;-90
2023/03/11 12:17:18;;;;;;;;;;;;;;;;;;4969800;29;19974;-89
2023/03/11 12:22:48;;;;;;;;;;;;;;;;;;4961850;29;19941;-91
2023/03/11 12:41:15;;;;;;;;;;;;;;;;;;1428837;23;20388;-89
2023/03/11 12:43:41;;;;;;;;;;;;;;;;;;4969374;28;19926;-88
2023/03/11 12:46:25;;;;;;;;;;;;;;;;;;4971058;28;19922;-87
2023/03/11 12:48:51;;;;;;;;;;;;;;;;;;4973830;28;20006;-89
2023/03/11 12:59:08;;;;;;;;;;;;;;;;;;5749956;23;19993;-96
2023/03/11 13:01:34;;;;;;;;;;;;;;;;;;4983903;28;19969;-94
2023/03/11 13:04:00;;;;;;;;;;;;;;;;;;4978764;28;19929;-96
2023/03/11 13:16:49;;;;;;;;;;;;;;;;;;5101815;23;19930;-93
2023/03/11 13:19:16;;;;;;;;;;;;;;;;;;4955690;29;19926;-94
2023/03/11 13:21:41;;;;;;;;;;;;;;;;;;5380571;23;21043;-94
2023/03/11 13:24:07;;;;;;;;;;;;;;;;;;4889414;28;2861805;-93
2023/03/11 13:29:14;;;;;;;;;;;;;;;;;;5218331;23;19925;-93
2023/03/11 14:26:21;;;;;;;;;;;;;;;;;;4969887;29;19927;-86
2023/03/11 14:28:51;;;;;;;;;;;;;;;;;;4968386;28;19922;-90
2023/03/11 14:31:30;;;;;;;;;;;;;;;;;;4994860;28;20020;-91
2023/03/11 14:33:57;;;;;;;;;;;;;;;;;;4955432;29;20440;-92
2023/03/11 14:36:23;;;;;;;;;;;;;;;;;;4977760;29;19922;-94
2023/03/11 14:38:57;;;;;;;;;;;;;;;;;;4972967;28;19922;-94
2023/03/11 14:41:24;;;;;;;;;;;;;;;;;;4965054;29;19926;-94
2023/03/11 14:43:54;;;;;;;;;;;;;;;;;;4973367;29;19930;-92
2023/03/11 14:46:22;;;;;;;;;;;;;;;;;;5150357;23;19911;-91
2023/03/11 14:48:48;;;;;;;;;;;;;;;;;;4975015;28;19934;-90
2023/03/11 14:51:14;;;;;;;;;;;;;;;;;;5797016;23;19925;-93
2023/03/11 14:53:41;;;;;;;;;;;;;;;;;;4970307;28;19926;-91
2023/03/11 14:56:46;;;;;;;;;;;;;;;;;;5689944;23;19933;-93
2023/03/11 14:59:12;;;;;;;;;;;;;;;;;;4970120;28;19930;-91
2023/03/11 15:01:41;;;;;;;;;;;;;;;;;;4973177;28;19926;-94
2023/03/11 15:04:07;;;;;;;;;;;;;;;;;;4969608;28;19926;-88
2023/03/11 15:06:33;;;;;;;;;;;;;;;;;;4970524;28;20009;-94
2023/03/11 15:09:00;;;;;;;;;;;;;;;;;;4969849;28;20379;-94
2023/03/11 15:11:27;;;;;;;;;;;;;;;;;;4968944;28;19906;-96
2023/03/11 15:13:53;;;;;;;;;;;;;;;;;;4966031;28;19962;-95
2023/03/11 15:16:30;;;;;;;;;;;;;;;;;;4967882;28;19923;-96
2023/03/11 15:19:03;;;;;;;;;;;;;;;;;;4972105;28;19926;-94
2023/03/11 15:21:29;;;;;;;;;;;;;;;;;;5087968;23;19938;-96
2023/03/11 15:23:55;;;;;;;;;;;;;;;;;;4934667;29;19927;-95
2023/03/11 15:26:22;;;;;;;;;;;;;;;;;;4950192;29;19907;-96
2023/03/11 15:28:48;;;;;;;;;;;;;;;;;;4953332;29;19930;-92
2023/03/11 15:31:15;;;;;;;;;;;;;;;;;;4946487;29;19991;-94
2023/03/11 15:36:17;;;;;;;;;;;;;;;;;;5063736;23;19965;-94
2023/03/11 15:38:43;;;;;;;;;;;;;;;;;;4952768;29;19926;-94
2023/03/11 15:41:09;;;;;;;;;;;;;;;;;;4956266;29;19930;-92
2023/03/11 15:43:35;;;;;;;;;;;;;;;;;;4949096;29;19927;-95
2023/03/11 15:46:00;;;;;;;;;;;;;;;;;;4954050;29;19977;-95
2023/03/11 17:34:58;;;;;;;;;;;;;;;;;;4995771;28;19930;-96
2023/03/11 17:37:28;;;;;;;;;;;;;;;;;;5009560;23;19926;-94
2023/03/11 17:39:54;;;;;;;;;;;;;;;;;;4953335;29;20438;-93
2023/03/11 17:42:23;;;;;;;;;;;;;;;;;;4961942;28;19930;-93
2023/03/11 17:44:49;;;;;;;;;;;;;;;;;;4956355;29;19986;-95
2023/03/11 17:47:15;;;;;;;;;;;;;;;;;;4965264;28;19949;-95
2023/03/11 17:50:25;;;;;;;;;;;;;;;;;;4965428;28;19907;-96
2023/03/11 17:52:32;;;;;;;;;;;;;;;;;;4999711;28;19957;-93
2023/03/11 17:55:20;;;;;;;;;;;;;;;;;;5002175;28;19917;-94
2023/03/11 17:57:46;;;;;;;;;;;;;;;;;;4963573;29;19922;-94
2023/03/11 18:00:13;;;;;;;;;;;;;;;;;;4963208;28;19926;-95
2023/03/11 18:02:39;;;;;;;;;;;;;;;;;;4969808;28;19922;-96
2023/03/11 18:05:05;;;;;;;;;;;;;;;;;;4963626;29;19973;-96
2023/03/11 18:07:31;;;;;;;;;;;;;;;;;;4958373;28;19910;-95
2023/03/11 18:10:14;;;;;;;;;;;;;;;;;;4978999;29;19954;-96
2023/03/11 18:12:39;;;;;;;;;;;;;;;;;;4955761;29;19930;-96
2023/03/11 18:15:07;;;;;;;;;;;;;;;;;;4962310;28;20043;-95
2023/03/11 18:17:32;;;;;;;;;;;;;;;;;;4965415;28;19930;-95
2023/03/11 18:19:59;;;;;;;;;;;;;;;;;;4957000;29;19926;-95
2023/03/11 18:22:25;;;;;;;;;;;;;;;;;;4961694;29;19922;-94
2023/03/11 18:24:51;;;;;;;;;;;;;;;;;;4960778;28;20002;-95
2023/03/11 18:27:17;;;;;;;;;;;;;;;;;;4964542;29;20396;-94
2023/03/11 18:29:43;;;;;;;;;;;;;;;;;;4958641;28;19922;-96
2023/03/11 18:32:12;;;;;;;;;;;;;;;;;;4958177;29;19974;-95
2023/03/11 18:34:39;;;;;;;;;;;;;;;;;;4981022;28;19942;-94
2023/03/11 18:37:05;;;;;;;;;;;;;;;;;;4964511;29;19978;-95
2023/03/11 18:39:36;;;;;;;;;;;;;;;;;;4987157;28;20000;-95
2023/03/11 18:42:03;;;;;;;;;;;;;;;;;;4954245;29;19923;-94
2023/03/11 18:44:29;;;;;;;;;;;;;;;;;;4956701;29;19973;-94
2023/03/11 18:46:55;;;;;;;;;;;;;;;;;;4952531;29;19990;-96
2023/03/11 18:49:21;;;;;;;;;;;;;;;;;;4956372;29;19929;-96
2023/03/11 18:51:52;;;;;;;;;;;;;;;;;;4955028;29;19906;-95
2023/03/11 18:54:18;;;;;;;;;;;;;;;;;;4956136;29;19923;-95
2023/03/11 18:56:45;;;;;;;;;;;;;;;;;;4969634;28;19949;-96
2023/03/11 18:59:25;;;;;;;;;;;;;;;;;;4985278;28;19915;-96
2023/03/11 19:02:04;;;;;;;;;;;;;;;;;;4988262;28;19934;-95
2023/03/11 19:09:48;;;;;;;;;;;;;;;;;;4964536;28;20384;-94
2023/03/11 19:12:14;;;;;;;;;;;;;;;;;;4950515;29;20006;-95
2023/03/11 19:14:40;;;;;;;;;;;;;;;;;;4952392;29;19954;-95
2023/03/11 19:17:06;;;;;;;;;;;;;;;;;;4943768;29;19923;-96
2023/03/11 19:19:32;;;;;;;;;;;;;;;;;;4942545;29;20025;-94
2023/03/11 19:21:58;;;;;;;;;;;;;;;;;;4956406;29;19922;-96
2023/03/11 19:24:30;;;;;;;;;;;;;;;;;;4946972;29;19977;-95
2023/03/11 19:26:56;;;;;;;;;;;;;;;;;;4942867;29;19926;-95
2023/03/11 19:29:23;;;;;;;;;;;;;;;;;;4950832;29;19930;-96
2023/03/11 19:31:49;;;;;;;;;;;;;;;;;;4954454;29;20360;-95
2023/03/11 19:34:15;;;;;;;;;;;;;;;;;;4947129;29;20377;-95
2023/03/11 19:36:41;;;;;;;;;;;;;;;;;;4939619;29;20009;-95
2023/03/11 19:39:07;;;;;;;;;;;;;;;;;;4938518;29;19926;-94
2023/03/11 19:41:33;;;;;;;;;;;;;;;;;;4935008;29;19951;-96
2023/03/11 19:43:59;;;;;;;;;;;;;;;;;;4949567;29;19958;-95
2023/03/11 19:46:26;;;;;;;;;;;;;;;;;;4952802;29;19922;-94
2023/03/11 19:48:55;;;;;;;;;;;;;;;;;;4951598;29;19931;-95
2023/03/11 19:51:21;;;;;;;;;;;;;;;;;;4939144;29;19923;-95
2023/03/11 19:53:47;;;;;;;;;;;;;;;;;;4950242;29;19929;-95
2023/03/11 19:56:13;;;;;;;;;;;;;;;;;;4949590;29;19962;-94
2023/03/11 19:58:39;;;;;;;;;;;;;;;;;;4952660;29;19923;-95
2023/03/11 20:01:05;;;;;;;;;;;;;;;;;;4952206;29;19930;-94
2023/03/11 20:03:31;;;;;;;;;;;;;;;;;;4934456;29;19930;-96
2023/03/11 20:05:58;;;;;;;;;;;;;;;;;;4948920;29;19926;-94
2023/03/11 20:08:24;;;;;;;;;;;;;;;;;;4953655;29;19922;-95
2023/03/11 20:10:50;;;;;;;;;;;;;;;;;;4950265;29;19954;-95
2023/03/11 20:13:16;;;;;;;;;;;;;;;;;;4957023;29;19917;-94
2023/03/11 20:15:42;;;;;;;;;;;;;;;;;;4952997;29;19947;-95
2023/03/11 20:18:08;;;;;;;;;;;;;;;;;;4938621;29;19926;-96
2023/03/11 20:20:34;;;;;;;;;;;;;;;;;;4946653;29;19930;-95
2023/03/11 20:23:01;;;;;;;;;;;;;;;;;;4950518;29;19926;-95
2023/03/11 20:25:31;;;;;;;;;;;;;;;;;;4945211;29;19919;-95
2023/03/11 21:52:26;;;;;;;;;;;;;;;;;;4975341;29;19926;-93
2023/03/11 22:01:12;;;;;;;;;;;;;;;;;;4957844;29;19974;-93
2023/03/11 22:03:39;;;;;;;;;;;;;;;;;;4942563;29;19907;-93
2023/03/11 22:06:09;;;;;;;;;;;;;;;;;;4959728;28;19922;-93
2023/03/11 22:08:36;;;;;;;;;;;;;;;;;;4970243;28;19930;-93
2023/03/11 22:11:03;;;;;;;;;;;;;;;;;;4947832;29;19942;-92
2023/03/11 22:13:31;;;;;;;;;;;;;;;;;;4959097;29;19922;-92
2023/03/11 22:16:06;;;;;;;;;;;;;;;;;;4988016;28;19932;-92
2023/03/11 22:18:47;;;;;;;;;;;;;;;;;;4975908;28;19922;-92
2023/03/11 22:21:20;;;;;;;;;;;;;;;;;;4963978;29;19929;-92
2023/03/11 22:23:49;;;;;;;;;;;;;;;;;;4965032;29;19954;-92
2023/03/11 22:26:25;;;;;;;;;;;;;;;;;;4964781;29;19919;-92
2023/03/11 22:29:02;;;;;;;;;;;;;;;;;;4973592;29;20368;-91
2023/03/11 22:31:28;;;;;;;;;;;;;;;;;;4952767;29;19934;-93
2023/03/11 22:33:54;;;;;;;;;;;;;;;;;;4965520;28;19930;-93
2023/03/11 22:36:19;;;;;;;;;;;;;;;;;;4969163;28;19942;-92
2023/03/11 22:38:46;;;;;;;;;;;;;;;;;;4952294;29;19990;-93
2023/03/11 22:41:12;;;;;;;;;;;;;;;;;;4957075;28;19949;-93
2023/03/11 22:43:38;;;;;;;;;;;;;;;;;;4961222;28;20026;-93
2023/03/11 22:46:04;;;;;;;;;;;;;;;;;;4953337;29;19922;-92
2023/03/11 22:50:59;;;;;;;;;;;;;;;;;;4969605;29;20376;-93
2023/03/11 22:53:25;;;;;;;;;;;;;;;;;;4968543;28;20463;-92
2023/03/11 22:55:54;;;;;;;;;;;;;;;;;;4960937;29;19910;-93
2023/03/11 22:58:50;;;;;;;;;;;;;;;;;;4976106;28;19995;-93
2023/03/11 23:01:17;;;;;;;;;;;;;;;;;;4951410;29;19934;-94
2023/03/11 23:03:43;;;;;;;;;;;;;;;;;;4952100;29;19930;-94
2023/03/11 23:06:09;;;;;;;;;;;;;;;;;;4956588;29;19936;-93
2023/03/11 23:08:35;;;;;;;;;;;;;;;;;;4958794;28;19925;-93
2023/03/11 23:11:45;;;;;;;;;;;;;;;;;;4959175;28;19913;-93
2023/03/11 23:13:53;;;;;;;;;;;;;;;;;;4971745;28;19950;-93
2023/03/11 23:16:19;;;;;;;;;;;;;;;;;;4953721;29;19961;-93
2023/03/11 23:18:45;;;;;;;;;;;;;;;;;;4953802;29;19927;-93
2023/03/11 23:21:11;;;;;;;;;;;;;;;;;;4950633;29;19926;-95
2023/03/11 23:23:37;;;;;;;;;;;;;;;;;;4949257;29;19923;-93
2023/03/11 23:26:02;;;;;;;;;;;;;;;;;;4951541;29;19923;-91
2023/03/11 23:28:29;;;;;;;;;;;;;;;;;;4961687;29;19924;-93
2023/03/11 23:30:56;;;;;;;;;;;;;;;;;;4961940;29;20104;-91
2023/03/11 23:33:26;;;;;;;;;;;;;;;;;;4977969;28;19929;-91
2023/03/11 23:35:55;;;;;;;;;;;;;;;;;;4957424;29;20013;-91
2023/03/11 23:38:21;;;;;;;;;;;;;;;;;;4961056;29;19929;-92
2023/03/11 23:40:51;;;;;;;;;;;;;;;;;;4966248;28;20452;-92
2023/03/11 23:43:22;;;;;;;;;;;;;;;;;;4960252;29;19907;-91
2023/03/11 23:45:52;;;;;;;;;;;;;;;;;;4965706;28;19945;-92
2023/03/11 23:48:18;;;;;;;;;;;;;;;;;;4972454;28;19922;-92
2023/03/11 23:50:45;;;;;;;;;;;;;;;;;;4972431;28;19923;-91
2023/03/11 23:53:35;;;;;;;;;;;;;;;;;;4977458;28;19926;-90
2023/03/11 23:56:02;;;;;;;;;;;;;;;;;;4958976;28;19922;-91
2023/03/11 23:58:28;;;;;;;;;;;;;;;;;;4949638;29;19927;-90
